Time;durP1;ratioP1;P1;durP2;ratioP2;P2;SDS_P1;SDS_P2;PMS_P1;PMS_P2;Temp;Humidity;BMP_temperature;BMP_pressure;BME280_temperature;BME280_humidity;BME280_pressure;Samples;Min_cycle;Max_cycle;Signal;HPM_P1;HPM_P2
2021/12/09 00:03:45;;;;;;;28.38;20.83;;;;;;;1.07;70.67;98721.31;10423138;28;20099;-72
2021/12/09 00:08:46;;;;;;;31.83;22.00;;;;;;;0.98;71.29;98724.88;10424423;28;20388;-71
2021/12/09 00:13:49;;;;;;;28.63;20.73;;;;;;;0.87;71.98;98731.06;10423028;28;20041;-71
2021/12/09 00:18:50;;;;;;;30.17;21.58;;;;;;;1.07;71.52;98743.75;10422890;28;20056;-71
2021/12/09 00:23:52;;;;;;;32.20;22.10;;;;;;;1.46;69.50;98752.63;10420356;28;20045;-72
2021/12/09 00:28:53;;;;;;;27.75;20.83;;;;;;;1.16;70.72;98751.38;10419855;28;20409;-71
2021/12/09 00:33:57;;;;;;;25.65;19.15;;;;;;;0.93;71.83;98749.09;10418808;28;20128;-72
2021/12/09 00:38:59;;;;;;;25.80;20.30;;;;;;;1.00;71.63;98745.53;10420801;28;20080;-71
2021/12/09 00:44:01;;;;;;;32.28;21.35;;;;;;;0.99;72.05;98756.78;10419173;28;20051;-72
2021/12/09 00:49:03;;;;;;;28.50;20.05;;;;;;;1.25;71.20;98759.00;10420093;28;20041;-71
2021/12/09 00:54:05;;;;;;;25.38;20.67;;;;;;;1.10;71.68;98778.19;10420671;28;20045;-72
2021/12/09 00:59:06;;;;;;;21.60;18.42;;;;;;;0.95;72.42;98787.00;10420734;28;20049;-72
2021/12/09 01:04:08;;;;;;;26.02;20.52;;;;;;;0.91;72.87;98787.91;10420319;28;20041;-71
2021/12/09 01:09:10;;;;;;;22.45;19.50;;;;;;;0.94;72.85;98779.28;10403336;28;20052;-71
2021/12/09 01:14:12;;;;;;;24.42;18.70;;;;;;;0.87;73.54;98780.22;10419845;28;20113;-72
2021/12/09 01:19:14;;;;;;;27.25;20.27;;;;;;;0.88;73.63;98787.94;10420663;28;20053;-71
2021/12/09 01:24:15;;;;;;;31.92;22.50;;;;;;;0.83;73.89;98789.75;10421409;28;20091;-72
2021/12/09 01:29:21;;;;;;;39.90;22.67;;;;;;;0.76;74.70;98795.88;10421166;28;20415;-71
2021/12/09 01:34:23;;;;;;;35.80;22.40;;;;;;;0.74;74.62;98798.47;10418341;28;20092;-71
2021/12/09 01:39:31;;;;;;;36.38;23.48;;;;;;;0.80;74.59;98800.16;10418505;28;20052;-72
2021/12/09 01:44:32;;;;;;;41.22;24.70;;;;;;;0.75;74.45;98807.97;10419107;28;20045;-72
2021/12/09 01:49:34;;;;;;;38.47;24.27;;;;;;;0.61;75.62;98808.97;10418888;28;20145;-73
2021/12/09 01:54:36;;;;;;;55.25;26.63;;;;;;;0.73;75.08;98799.34;10424233;28;20040;-71
2021/12/09 01:59:37;;;;;;;45.90;26.20;;;;;;;0.57;75.63;98799.53;10429610;28;20072;-71
2021/12/09 02:04:39;;;;;;;50.90;27.13;;;;;;;0.84;74.49;98809.59;10428785;28;20071;-71
2021/12/09 02:09:41;;;;;;;50.63;26.27;;;;;;;0.65;75.06;98787.38;10429594;28;20114;-72
2021/12/09 02:14:44;;;;;;;55.40;26.45;;;;;;;0.90;74.16;98793.97;10425555;28;20056;-71
2021/12/09 02:19:46;;;;;;;61.92;28.45;;;;;;;0.65;75.35;98800.31;10423975;28;20053;-71
2021/12/09 02:24:48;;;;;;;59.45;29.65;;;;;;;0.81;75.60;98795.84;10423790;28;20048;-71
2021/12/09 02:29:51;;;;;;;64.13;29.90;;;;;;;0.90;74.53;98806.91;10424361;28;20434;-72
2021/12/09 02:34:52;;;;;;;60.55;30.55;;;;;;;0.86;74.35;98797.47;10504749;23;20497;-70
2021/12/09 02:39:56;;;;;;;65.82;32.25;;;;;;;0.74;74.52;98797.63;10503558;28;20052;-69
2021/12/09 02:44:57;;;;;;;63.90;31.05;;;;;;;0.70;75.06;98790.78;10502077;28;20048;-70
2021/12/09 02:50:00;;;;;;;69.13;31.90;;;;;;;0.61;75.91;98780.53;10502953;28;20040;-70
2021/12/09 02:55:03;;;;;;;60.20;30.20;;;;;;;0.48;76.28;98788.44;10501703;28;20401;-70
2021/12/09 03:00:07;;;;;;;67.63;32.95;;;;;;;0.68;75.29;98774.44;10503851;28;20044;-70
2021/12/09 03:05:09;;;;;;;72.22;31.58;;;;;;;0.43;76.37;98790.22;10483763;28;20534;-70
2021/12/09 03:10:20;;;;;;;65.32;33.20;;;;;;;0.21;77.38;98794.75;10503363;28;20044;-70
2021/12/09 03:15:22;;;;;;;66.35;31.95;;;;;;;0.42;76.78;98816.94;10501892;28;20075;-69
2021/12/09 03:20:24;;;;;;;64.75;31.42;;;;;;;0.26;77.61;98815.38;10502109;28;20048;-70
2021/12/09 03:25:26;;;;;;;72.13;33.40;;;;;;;0.80;75.46;98830.31;10501586;28;20045;-68
2021/12/09 03:30:27;;;;;;;66.65;31.75;;;;;;;0.58;76.14;98829.72;10502744;28;20048;-68
2021/12/09 03:35:29;;;;;;;73.80;33.40;;;;;;;0.67;75.89;98850.31;10501546;28;20044;-69
2021/12/09 03:40:30;;;;;;;66.82;32.83;;;;;;;0.59;75.51;98831.44;10501378;28;20044;-69
2021/12/09 03:45:32;;;;;;;60.53;31.17;;;;;;;0.34;77.19;98795.47;10501307;28;20452;-70
2021/12/09 03:50:34;;;;;;;66.55;31.60;;;;;;;0.33;77.37;98785.16;10500376;28;20102;-70
2021/12/09 03:55:35;;;;;;;69.47;33.22;;;;;;;0.55;76.31;98801.31;10500137;28;20110;-69
2021/12/09 04:00:37;;;;;;;69.10;32.92;;;;;;;0.39;77.24;98792.84;10499840;28;20117;-70
2021/12/09 04:05:39;;;;;;;68.00;33.20;;;;;;;0.33;77.42;98787.75;10499938;28;20041;-69
2021/12/09 04:10:41;;;;;;;69.15;31.83;;;;;;;0.47;77.22;98801.38;10499962;28;20040;-69
2021/12/09 04:15:43;;;;;;;68.40;32.97;;;;;;;0.67;76.26;98796.00;10497959;28;20045;-68
2021/12/09 04:20:45;;;;;;;71.50;33.35;;;;;;;0.46;76.82;98803.13;10499232;28;20052;-68
2021/12/09 04:25:46;;;;;;;65.93;32.95;;;;;;;0.62;76.50;98802.94;10500533;28;20040;-70
2021/12/09 04:30:48;;;;;;;65.90;32.60;;;;;;;0.38;77.22;98806.66;10499245;28;20075;-69
2021/12/09 04:35:49;;;;;;;65.38;31.23;;;;;;;0.35;77.46;98814.44;10499357;28;20090;-69
2021/12/09 04:40:51;;;;;;;66.28;30.92;;;;;;;0.35;77.86;98817.88;10498052;28;20517;-69
2021/12/09 04:45:53;;;;;;;68.18;33.53;;;;;;;0.55;76.69;98809.06;10499308;28;20509;-69
2021/12/09 04:50:55;;;;;;;57.85;29.17;;;;;;;0.37;78.12;98831.66;10498393;28;20080;-69
2021/12/09 04:55:57;;;;;;;70.57;33.40;;;;;;;0.33;78.37;98818.78;10498188;28;20043;-69
2021/12/09 05:01:02;;;;;;;72.45;33.83;;;;;;;0.34;78.55;98807.56;10496827;28;20070;-70
2021/12/09 05:06:04;;;;;;;58.08;31.52;;;;;;;0.42;78.02;98809.19;10498470;28;20047;-68
2021/12/09 05:11:26;;;;;;;67.82;31.83;;;;;;;0.39;78.27;98800.59;10480863;28;20091;-70
2021/12/09 05:16:28;;;;;;;66.38;33.25;;;;;;;0.58;78.20;98794.38;10498799;28;20048;-69
2021/12/09 05:21:37;;;;;;;70.45;32.35;;;;;;;0.63;76.85;98795.19;10499431;28;20040;-69
2021/12/09 05:26:47;;;;;;;70.63;33.38;;;;;;;0.59;78.20;98797.81;10499145;28;20098;-69
2021/12/09 05:32:07;;;;;;;63.50;30.83;;;;;;;0.77;76.26;98817.44;10499324;28;20569;-69
2021/12/09 05:37:20;;;;;;;51.63;29.00;;;;;;;0.57;77.40;98802.97;10499362;28;20443;-70
2021/12/09 05:42:24;;;;;;;57.38;30.83;;;;;;;0.38;78.58;98797.16;10502067;28;20039;-69
2021/12/09 05:47:25;;;;;;;60.05;30.27;;;;;;;0.51;78.03;98808.22;10499172;28;20102;-69
2021/12/09 05:52:31;;;;;;;53.33;29.17;;;;;;;0.72;77.88;98818.34;10499800;28;20067;-70
2021/12/09 05:57:33;;;;;;;45.38;27.13;;;;;;;0.70;76.96;98812.31;10499694;28;20078;-70
2021/12/09 06:02:35;;;;;;;52.97;28.77;;;;;;;0.71;77.28;98813.19;10500029;28;20037;-70
2021/12/09 06:07:37;;;;;;;58.30;28.35;;;;;;;0.82;76.14;98816.50;10498834;28;20417;-69
2021/12/09 06:12:39;;;;;;;50.65;26.27;;;;;;;0.59;78.11;98798.66;10499028;28;20132;-72
2021/12/09 06:17:40;;;;;;;47.95;28.77;;;;;;;0.66;77.65;98805.47;10498785;28;20048;-74
2021/12/09 06:22:42;;;;;;;44.28;27.02;;;;;;;0.89;76.62;98812.97;10498906;28;20092;-73
2021/12/09 06:27:46;;;;;;;42.88;25.92;;;;;;;0.60;77.53;98809.88;10499550;28;20051;-73
2021/12/09 06:32:48;;;;;;;42.58;27.23;;;;;;;0.93;76.63;98855.16;10498555;28;20040;-72
2021/12/09 06:37:49;;;;;;;49.60;27.08;;;;;;;1.04;76.26;98855.06;10498571;28;20055;-72
2021/12/09 06:42:52;;;;;;;48.22;27.52;;;;;;;0.72;77.52;98851.97;10502475;28;20190;-71
2021/12/09 06:47:54;;;;;;;54.78;28.90;;;;;;;0.59;78.38;98868.50;10505828;28;20161;-72
2021/12/09 06:52:55;;;;;;;53.00;28.83;;;;;;;0.71;78.16;98839.91;10505516;28;20186;-72
2021/12/09 06:57:57;;;;;;;49.67;28.63;;;;;;;0.76;78.22;98865.72;10505423;28;20102;-71
2021/12/09 07:03:00;;;;;;;52.65;28.10;;;;;;;0.60;79.21;98864.16;10504709;28;20048;-70
2021/12/09 07:08:05;;;;;;;49.47;28.05;;;;;;;0.91;77.89;98868.13;10504654;28;20063;-71
2021/12/09 07:13:08;;;;;;;53.28;28.67;;;;;;;0.86;78.65;98875.09;10503850;28;20060;-71
2021/12/09 07:18:10;;;;;;;47.47;29.48;;;;;;;0.93;78.23;98868.09;10503242;28;20416;-71
2021/12/09 07:23:11;;;;;;;48.38;28.80;;;;;;;0.89;78.52;98871.63;10504112;28;20040;-72
2021/12/09 07:28:14;;;;;;;48.55;28.77;;;;;;;1.05;77.56;98901.59;10503030;28;20055;-71
2021/12/09 07:33:15;;;;;;;41.03;27.95;;;;;;;0.77;78.69;98851.91;10503584;28;20052;-71
2021/12/09 07:38:17;;;;;;;54.53;30.10;;;;;;;0.65;79.83;98852.03;10503492;28;20468;-71
2021/12/09 07:43:19;;;;;;;54.97;30.55;;;;;;;0.69;80.39;98861.47;10503589;28;20165;-72
2021/12/09 07:48:20;;;;;;;55.55;29.92;;;;;;;1.09;78.70;98874.81;10502977;28;20432;-71
2021/12/09 07:53:22;;;;;;;45.92;29.35;;;;;;;1.10;77.85;98878.25;10503673;28;20113;-71
2021/12/09 07:58:24;;;;;;;53.17;29.65;;;;;;;0.92;78.93;98869.84;10504692;28;20048;-72
2021/12/09 08:03:26;;;;;;;55.75;30.65;;;;;;;0.93;78.99;98875.84;10503104;28;20516;-71
2021/12/09 08:08:28;;;;;;;52.85;31.55;;;;;;;0.87;79.25;98886.28;10502562;28;20059;-73
2021/12/09 08:13:30;;;;;;;54.50;31.27;;;;;;;0.88;79.76;98883.66;10505105;28;20048;-73
2021/12/09 08:18:43;;;;;;;56.95;31.38;;;;;;;0.87;79.81;98884.56;10500668;28;20051;-72
2021/12/09 08:23:45;;;;;;;61.40;33.35;;;;;;;1.28;78.02;98893.56;10501478;28;20048;-73
2021/12/09 08:28:47;;;;;;;52.88;31.02;;;;;;;0.99;78.95;98887.00;10501709;28;20045;-68
2021/12/09 08:33:48;;;;;;;59.08;32.97;;;;;;;1.40;77.86;98908.94;10514769;22;20045;-72
2021/12/09 08:39:10;;;;;;;66.25;34.70;;;;;;;1.07;78.66;98888.66;10505009;28;20048;-73
2021/12/09 08:44:13;;;;;;;70.00;36.85;;;;;;;1.33;78.09;98896.97;10485563;28;20512;-73
2021/12/09 08:49:15;;;;;;;71.10;38.85;;;;;;;1.21;79.16;98907.47;10500739;28;20049;-73
2021/12/09 08:54:16;;;;;;;65.07;37.20;;;;;;;1.14;80.43;98898.91;10498369;28;20507;-73
2021/12/09 08:59:22;;;;;;;68.80;36.08;;;;;;;1.39;79.25;98907.22;10498757;28;20041;-73
2021/12/09 09:04:40;;;;;;;73.93;36.97;;;;;;;1.12;81.51;98915.34;10497999;28;20045;-73
2021/12/09 09:09:42;;;;;;;72.43;38.42;;;;;;;1.38;80.81;98909.84;10499784;28;20548;-73
2021/12/09 09:14:43;;;;;;;69.60;37.25;;;;;;;1.43;81.01;98898.56;10499083;28;20045;-73
2021/12/09 09:19:45;;;;;;;77.78;38.53;;;;;;;1.30;82.07;98928.06;10499136;28;20490;-73
2021/12/09 09:24:47;;;;;;;75.10;38.28;;;;;;;1.16;83.71;98927.38;10499213;28;20436;-73
2021/12/09 09:29:49;;;;;;;67.13;37.70;;;;;;;1.38;82.63;98949.53;10497592;28;20048;-73
2021/12/09 09:34:53;;;;;;;70.65;36.55;;;;;;;1.45;82.79;98921.81;10498898;28;20052;-73
2021/12/09 09:39:55;;;;;;;77.07;40.05;;;;;;;1.11;84.27;98927.44;10497625;28;20036;-73
2021/12/09 09:44:57;;;;;;;74.90;38.28;;;;;;;1.53;83.08;98935.53;10500097;28;20040;-73
2021/12/09 09:49:59;;;;;;;76.68;38.78;;;;;;;1.46;82.69;98933.88;10499043;28;20413;-73
2021/12/09 09:55:06;;;;;;;73.32;39.53;;;;;;;1.19;84.23;98940.25;10500082;28;20059;-73
2021/12/09 10:00:11;;;;;;;71.60;38.10;;;;;;;1.18;84.94;98928.19;10501067;28;20048;-73
2021/12/09 10:05:14;;;;;;;69.15;38.40;;;;;;;1.58;83.54;98922.53;10499671;28;20102;-74
2021/12/09 10:10:17;;;;;;;70.68;38.83;;;;;;;1.51;83.11;98929.53;10482642;28;20417;-73
2021/12/09 10:15:43;;;;;;;67.85;37.10;;;;;;;1.62;82.58;98921.59;10503130;28;20501;-73
2021/12/09 10:20:54;;;;;;;76.32;39.78;;;;;;;1.33;83.85;98907.31;10505825;28;20049;-73
2021/12/09 10:26:16;;;;;;;73.65;37.80;;;;;;;1.47;83.91;98907.13;10511900;28;20032;-72
2021/12/09 10:31:33;;;;;;;72.03;37.80;;;;;;;1.49;83.75;98898.47;10511401;28;20052;-74
2021/12/09 10:36:46;;;;;;;67.07;38.25;;;;;;;1.53;83.53;98891.50;10509023;28;20175;-72
2021/12/09 10:41:49;;;;;;;63.03;35.78;;;;;;;1.56;82.39;98886.28;10508072;28;20056;-72
2021/12/09 10:47:05;;;;;;;73.80;37.97;;;;;;;1.31;84.21;98883.16;10508536;28;20397;-72
2021/12/09 10:52:36;;;;;;;67.65;35.05;;;;;;;1.70;82.27;98875.72;10506370;28;20048;-73
2021/12/09 10:57:39;;;;;;;69.32;38.15;;;;;;;1.52;83.82;98867.34;10505507;28;20044;-73
2021/12/09 11:03:08;;;;;;;68.60;37.15;;;;;;;1.52;84.85;98867.34;10504248;28;20505;-74
2021/12/09 11:08:27;;;;;;;66.07;37.40;;;;;;;1.53;85.12;98870.78;10505284;28;20041;-73
2021/12/09 11:13:41;;;;;;;63.40;36.42;;;;;;;1.81;83.32;98873.81;10504815;28;20090;-74
2021/12/09 11:18:45;;;;;;;60.20;35.00;;;;;;;1.77;82.55;98870.44;10504987;28;20119;-73
2021/12/09 11:24:00;;;;;;;61.25;36.22;;;;;;;1.55;84.04;98874.22;10503041;28;20052;-73
2021/12/09 11:29:23;;;;;;;53.58;34.35;;;;;;;1.90;81.98;98871.09;10501957;28;20052;-73
2021/12/09 11:34:31;;;;;;;52.88;33.88;;;;;;;2.00;81.62;98879.59;10503391;28;20106;-73
2021/12/09 11:39:36;;;;;;;60.25;35.25;;;;;;;2.01;81.39;98905.50;10504707;28;20045;-73
2021/12/09 11:44:37;;;;;;;57.92;34.28;;;;;;;1.89;82.18;98917.78;10503868;28;20087;-73
2021/12/09 11:49:40;;;;;;;55.72;33.28;;;;;;;2.02;81.76;98883.00;10503899;28;20079;-74
2021/12/09 11:54:50;;;;;;;58.38;35.40;;;;;;;1.84;82.41;98875.53;10503510;28;20494;-73
2021/12/09 12:06:42;;;;;;;57.80;35.13;;;;;;;1.74;83.01;98887.78;10502202;28;20102;-73
2021/12/09 12:11:37;;;;;;;51.80;32.78;;;;;;;1.87;81.62;98888.44;10493461;28;20056;-73
2021/12/09 12:17:03;;;;;;;60.00;34.42;;;;;;;1.71;82.60;98888.66;10504208;28;20066;-73
2021/12/09 12:22:44;;;;;;;61.08;34.97;;;;;;;1.83;82.90;98879.84;10505006;28;20056;-74
2021/12/09 12:28:03;;;;;;;59.60;34.17;;;;;;;1.83;83.31;98876.41;10504300;28;20070;-72
2021/12/09 12:33:31;;;;;;;59.60;33.83;;;;;;;2.08;81.91;98889.81;10502613;28;20089;-72
2021/12/09 12:38:49;;;;;;;55.33;33.75;;;;;;;1.92;83.39;98904.78;10501931;28;20044;-73
2021/12/09 12:43:57;;;;;;;54.58;31.38;;;;;;;2.01;82.02;98912.41;10500685;28;20044;-73
2021/12/09 12:49:17;;;;;;;58.63;34.58;;;;;;;2.03;82.11;98923.59;10501056;28;20041;-73
2021/12/09 12:54:42;;;;;;;61.15;33.78;;;;;;;2.17;81.75;98918.19;10500937;28;20105;-73
2021/12/09 12:59:46;;;;;;;65.95;35.10;;;;;;;1.83;84.24;98916.13;10501592;28;20056;-73
2021/12/09 13:05:14;;;;;;;63.42;34.47;;;;;;;1.97;83.18;98914.19;10500811;28;20048;-72
2021/12/09 13:10:25;;;;;;;71.40;37.88;;;;;;;1.71;85.46;98917.16;10501990;28;20041;-72
2021/12/09 13:15:37;;;;;;;66.57;34.53;;;;;;;1.75;84.71;98908.47;10500644;28;20086;-73
2021/12/09 13:20:39;;;;;;;71.78;36.08;;;;;;;1.79;85.62;98906.69;10501620;28;20387;-72
2021/12/09 13:26:28;;;;;;;70.05;35.58;;;;;;;2.00;84.18;98913.31;10499891;28;20493;-73
2021/12/09 13:31:51;;;;;;;69.57;35.38;;;;;;;2.04;83.62;98902.00;10500858;28;20100;-73
2021/12/09 13:37:27;;;;;;;73.50;35.15;;;;;;;1.82;85.69;98896.28;10504671;28;20474;-73
2021/12/09 13:47:45;;;;;;;114.82;61.65;;;;;;;1.60;86.98;98903.50;10504562;28;20094;-72
2021/12/09 13:57:52;;;;;;;91.93;43.80;;;;;;;1.61;87.70;98910.41;10510559;28;20135;-73
2021/12/09 14:02:59;;;;;;;87.00;43.30;;;;;;;1.72;86.52;98921.44;10493334;28;20395;-73
2021/12/09 14:08:05;;;;;;;92.22;44.47;;;;;;;1.63;86.84;98928.50;10509782;28;20075;-73
2021/12/09 14:13:14;;;;;;;98.30;43.08;;;;;;;1.40;88.37;98929.66;10494264;28;20053;-72
2021/12/09 14:18:19;;;;;;;105.18;44.42;;;;;;;1.03;90.93;98934.41;10510339;28;20110;-72
2021/12/09 14:23:21;;;;;;;107.38;43.55;;;;;;;0.93;92.65;98944.00;10510888;28;20051;-72
2021/12/09 14:28:23;;;;;;;124.72;47.30;;;;;;;0.94;92.69;98956.06;10512175;28;20045;-73
2021/12/09 14:33:25;;;;;;;131.18;47.28;;;;;;;0.91;93.70;98960.41;10505059;28;20083;-71
2021/12/09 14:38:27;;;;;;;132.38;47.38;;;;;;;0.86;93.80;98965.63;10505011;28;20079;-71
2021/12/09 14:43:29;;;;;;;130.38;48.58;;;;;;;0.86;94.10;98962.19;10504488;28;20037;-72
2021/12/09 14:48:35;;;;;;;130.95;46.05;;;;;;;0.96;93.59;98963.81;10502978;28;20051;-71
2021/12/09 14:53:39;;;;;;;146.20;50.23;;;;;;;0.84;94.37;98962.22;10504221;28;20040;-72
2021/12/09 14:58:41;;;;;;;154.63;48.92;;;;;;;0.79;95.27;98968.28;10503840;28;20044;-72
2021/12/09 15:03:55;;;;;;;150.77;48.28;;;;;;;0.84;95.48;98964.81;10503927;28;20040;-72
2021/12/09 15:09:14;;;;;;;155.85;49.95;;;;;;;0.89;94.60;98957.84;10504522;28;20048;-72
2021/12/09 15:14:21;;;;;;;154.77;48.00;;;;;;;0.89;94.51;98965.63;10504348;28;20351;-71
2021/12/09 15:19:22;;;;;;;158.57;48.97;;;;;;;0.89;95.00;98964.75;10502673;28;20279;-71
2021/12/09 15:24:24;;;;;;;146.77;46.50;;;;;;;0.81;95.32;98964.81;10502946;28;20051;-72
2021/12/09 15:29:26;;;;;;;142.98;45.45;;;;;;;0.89;95.32;98972.53;10503815;28;20053;-71
2021/12/09 15:34:39;;;;;;;158.10;47.80;;;;;;;0.68;95.85;98981.34;10502696;28;20509;-71
2021/12/09 15:39:43;;;;;;;174.93;49.80;;;;;;;0.78;95.49;98982.97;10501517;28;20159;-72
2021/12/09 15:44:48;;;;;;;168.70;48.30;;;;;;;0.72;96.10;98968.34;10503429;28;20040;-71
2021/12/09 15:49:58;;;;;;;155.00;48.88;;;;;;;0.63;96.47;98970.19;10502744;28;20559;-72
2021/12/09 15:55:13;;;;;;;172.63;48.00;;;;;;;0.55;96.62;98967.66;10500718;28;20049;-72
2021/12/09 16:00:18;;;;;;;168.10;49.75;;;;;;;0.55;97.42;98967.66;10502148;28;20051;-72
2021/12/09 16:05:23;;;;;;;138.65;44.50;;;;;;;0.85;95.74;98963.94;10501022;28;20097;-71
2021/12/09 16:10:25;;;;;;;140.25;44.95;;;;;;;0.99;93.06;98969.81;10502688;28;20424;-72
2021/12/09 16:15:28;;;;;;;129.90;43.40;;;;;;;1.22;90.96;98963.53;10502418;28;20040;-72
2021/12/09 16:20:36;;;;;;;123.95;42.47;;;;;;;1.18;90.51;98967.88;10502412;28;20127;-72
2021/12/09 16:25:39;;;;;;;115.10;40.95;;;;;;;1.26;89.14;98984.19;10501668;28;20040;-72
2021/12/09 16:30:41;;;;;;;119.55;40.70;;;;;;;0.87;91.38;98980.28;10501236;28;20048;-72
2021/12/09 16:35:42;;;;;;;110.72;41.67;;;;;;;0.64;92.79;98977.91;10501954;28;20052;-72
2021/12/09 16:40:45;;;;;;;120.53;41.90;;;;;;;0.59;93.26;98981.41;10499376;28;20054;-71
2021/12/09 16:45:48;;;;;;;108.65;42.38;;;;;;;0.61;93.48;98983.09;10499918;28;20048;-71
2021/12/09 16:50:52;;;;;;;121.35;42.10;;;;;;;0.66;93.21;98970.13;10488832;28;20040;-72
2021/12/09 16:56:07;;;;;;;111.88;40.75;;;;;;;0.75;92.54;98972.63;10486336;28;20051;-72
2021/12/09 17:01:13;;;;;;;106.60;39.22;;;;;;;0.61;93.13;98975.34;10466255;28;20119;-72
2021/12/09 17:06:15;;;;;;;102.27;39.90;;;;;;;0.70;92.69;98961.47;10465573;28;20066;-72
2021/12/09 17:11:16;;;;;;;110.00;42.58;;;;;;;0.57;93.33;98965.88;10481974;28;20049;-71
2021/12/09 17:16:19;;;;;;;121.57;45.05;;;;;;;0.44;94.01;98964.28;10500221;28;20047;-72
2021/12/09 17:21:21;;;;;;;123.15;44.92;;;;;;;0.63;94.07;98960.69;10499740;28;20493;-73
2021/12/09 17:26:22;;;;;;;133.95;47.45;;;;;;;0.52;94.48;98959.91;10468742;28;20099;-71
2021/12/09 17:31:37;;;;;;;139.05;52.58;;;;;;;0.48;95.22;98974.59;10467094;28;20044;-72
2021/12/09 17:36:40;;;;;;;152.82;53.92;;;;;;;0.42;95.98;98978.97;10503256;28;20517;-72
2021/12/09 17:41:46;;;;;;;157.82;55.08;;;;;;;0.39;96.11;98981.56;10500285;28;20040;-73
2021/12/09 17:46:57;;;;;;;143.00;53.45;;;;;;;0.45;96.15;98973.78;10499870;28;20102;-72
2021/12/09 17:52:16;;;;;;;154.73;53.72;;;;;;;0.46;96.21;98978.06;10499158;28;20413;-73
2021/12/09 17:57:18;;;;;;;148.52;53.92;;;;;;;0.43;96.41;98971.19;10500539;28;20040;-73
2021/12/09 18:02:20;;;;;;;167.88;58.15;;;;;;;0.32;96.40;98966.97;10502893;28;20041;-72
2021/12/09 18:07:22;;;;;;;152.07;53.00;;;;;;;0.27;97.07;98966.13;10498381;28;20040;-72
2021/12/09 18:12:27;;;;;;;161.10;55.38;;;;;;;0.20;97.11;98965.34;10498867;28;20422;-72
2021/12/09 18:17:35;;;;;;;161.75;54.53;;;;;;;0.16;97.36;98953.31;10498167;28;20486;-72
2021/12/09 18:22:36;;;;;;;154.70;54.35;;;;;;;0.15;97.50;98952.44;10496954;28;20049;-73
2021/12/09 18:27:40;;;;;;;162.35;55.08;;;;;;;0.15;97.75;98959.34;10497496;28;20037;-73
2021/12/09 18:32:42;;;;;;;168.38;57.58;;;;;;;0.12;97.79;98941.28;10495497;28;20476;-73
2021/12/09 18:37:52;;;;;;;169.43;58.08;;;;;;;0.04;97.91;98943.91;10501101;28;20040;-73
2021/12/09 18:42:54;;;;;;;172.73;57.90;;;;;;;-0.02;98.47;98949.97;10504922;28;20044;-72
2021/12/09 18:47:56;;;;;;;172.95;56.38;;;;;;;-0.04;98.84;98951.72;10502948;28;20044;-72
2021/12/09 18:52:58;;;;;;;184.23;57.58;;;;;;;-0.06;99.34;98953.44;10503868;28;20049;-73
2021/12/09 18:58:02;;;;;;;176.40;58.90;;;;;;;-0.10;99.75;98966.38;10503524;28;20086;-73
2021/12/09 19:03:07;;;;;;;175.70;57.55;;;;;;;-0.04;99.85;98972.41;10503937;28;20094;-74
2021/12/09 19:08:10;;;;;;;149.68;52.92;;;;;;;0.08;99.59;98981.78;10503137;28;20098;-74
2021/12/09 19:13:13;;;;;;;150.93;51.88;;;;;;;0.13;99.55;98984.31;10503668;28;20105;-72
2021/12/09 19:18:25;;;;;;;170.07;56.28;;;;;;;0.16;99.19;98992.06;10502997;28;20398;-73
2021/12/09 19:23:28;;;;;;;161.70;56.20;;;;;;;0.07;98.93;98994.72;10502728;28;20036;-73
2021/12/09 19:28:32;;;;;;;133.93;50.70;;;;;;;0.14;99.06;98992.09;10503375;28;20494;-73
2021/12/09 19:33:34;;;;;;;158.75;54.35;;;;;;;0.15;98.95;98982.59;10484257;28;20053;-73
2021/12/09 19:38:35;;;;;;;148.45;53.13;;;;;;;0.16;98.85;98981.72;10502831;28;20048;-74
2021/12/09 19:43:38;;;;;;;160.20;54.08;;;;;;;0.14;98.35;98979.16;10502735;28;20335;-73
2021/12/09 19:48:40;;;;;;;145.18;52.38;;;;;;;0.15;98.74;98969.69;10502089;28;20509;-74
2021/12/09 19:53:46;;;;;;;156.55;52.63;;;;;;;0.17;98.48;98953.28;10484454;28;20051;-73
2021/12/09 19:58:48;;;;;;;159.57;54.38;;;;;;;0.17;98.01;98965.34;10500689;28;20135;-73
2021/12/09 20:03:50;;;;;;;174.10;58.58;;;;;;;0.09;98.08;98949.03;10501001;28;20044;-73
2021/12/09 20:08:55;;;;;;;160.95;54.75;;;;;;;0.05;97.93;98930.13;10484812;28;20082;-74
2021/12/09 20:13:57;;;;;;;174.20;56.90;;;;;;;-0.13;98.60;98936.28;10500230;28;20166;-73
2021/12/09 20:18:58;;;;;;;182.88;60.80;;;;;;;-0.20;99.53;98926.84;10484531;28;20044;-74
2021/12/09 20:24:21;;;;;;;175.93;57.58;;;;;;;-0.16;99.55;98931.13;10487003;28;20045;-73
2021/12/09 20:29:22;;;;;;;144.65;52.75;;;;;;;0.07;98.11;98932.69;10501552;28;20052;-72
2021/12/09 20:34:24;;;;;;;144.05;52.22;;;;;;;-0.08;98.22;98931.94;10502571;28;20040;-73
2021/12/09 20:39:26;;;;;;;149.65;53.22;;;;;;;-0.01;98.36;98933.59;10503998;28;20131;-73
2021/12/09 20:44:28;;;;;;;135.20;50.13;;;;;;;0.06;97.50;98931.84;10503961;28;20331;-73
2021/12/09 20:49:30;;;;;;;128.23;49.30;;;;;;;0.04;97.41;98940.47;10503095;28;20047;-73
2021/12/09 20:54:32;;;;;;;129.80;48.60;;;;;;;-0.05;97.65;98933.63;10502290;28;20055;-73
2021/12/09 20:59:34;;;;;;;109.03;45.20;;;;;;;-0.08;98.03;98931.09;10499944;28;20048;-73
2021/12/09 21:04:35;;;;;;;128.68;50.25;;;;;;;-0.12;98.41;98932.84;10501683;28;20036;-72
2021/12/09 21:09:37;;;;;;;126.95;49.67;;;;;;;-0.04;98.75;98927.63;10502028;28;20056;-72
2021/12/09 21:14:40;;;;;;;125.57;50.00;;;;;;;-0.07;98.26;98930.22;10500087;28;20131;-72
2021/12/09 21:19:45;;;;;;;123.70;48.63;;;;;;;0.02;98.58;98918.97;10500778;28;20045;-72
2021/12/09 21:24:47;;;;;;;116.00;46.40;;;;;;;-0.06;98.60;98921.59;10501244;28;20070;-72
2021/12/09 21:29:52;;;;;;;121.32;47.85;;;;;;;-0.18;98.82;98916.50;10501511;28;20114;-73
2021/12/09 21:40:18;;;;;;;122.40;49.92;;;;;;;-0.07;99.32;98874.25;10500659;28;20456;-73
2021/12/09 21:45:22;;;;;;;131.55;51.13;;;;;;;-0.04;98.71;98869.06;10499759;28;20052;-73
2021/12/09 21:50:24;;;;;;;135.13;53.47;;;;;;;-0.21;98.66;98865.75;10499003;28;20053;-73
2021/12/09 21:55:27;;;;;;;145.40;54.30;;;;;;;-0.20;99.52;98869.19;10498334;28;20131;-73
2021/12/09 22:00:29;;;;;;;130.73;52.30;;;;;;;-0.14;99.63;98859.66;10498236;28;20055;-73
2021/12/09 22:05:30;;;;;;;126.72;53.65;;;;;;;-0.04;98.68;98858.72;10480889;28;20044;-72
2021/12/09 22:10:32;;;;;;;123.43;51.63;;;;;;;-0.06;98.34;98862.19;10499608;28;20048;-71
2021/12/09 22:15:36;;;;;;;125.45;51.85;;;;;;;-0.10;98.57;98870.81;10504922;28;20090;-72
2021/12/09 22:20:38;;;;;;;129.52;52.13;;;;;;;-0.16;98.74;98879.47;10506298;28;20436;-73
2021/12/09 22:25:41;;;;;;;122.68;51.28;;;;;;;-0.20;98.87;98872.63;10505841;28;20070;-73
2021/12/09 22:30:43;;;;;;;118.38;49.80;;;;;;;-0.24;99.23;98868.34;10505498;28;20143;-72
2021/12/09 22:35:44;;;;;;;119.75;48.58;;;;;;;-0.13;99.53;98878.59;10504715;28;20049;-72
2021/12/09 22:40:46;;;;;;;131.07;51.35;;;;;;;-0.10;98.44;98883.72;10504289;28;20044;-71
2021/12/09 22:45:48;;;;;;;104.43;47.00;;;;;;;0.06;98.16;98885.34;10504328;28;20490;-72
2021/12/09 22:51:02;;;;;;;104.25;47.15;;;;;;;0.17;96.38;98875.75;10504511;28;20123;-72
2021/12/09 22:56:06;;;;;;;114.93;48.97;;;;;;;-0.15;97.83;98857.94;10505166;28;20190;-71
2021/12/09 23:01:11;;;;;;;108.22;45.72;;;;;;;-0.17;98.69;98849.34;10504774;28;20088;-72
2021/12/09 23:06:13;;;;;;;112.60;48.65;;;;;;;-0.14;98.63;98848.47;10502928;28;20055;-71
2021/12/09 23:11:22;;;;;;;101.40;44.45;;;;;;;-0.17;98.98;98851.09;10504112;28;20057;-72
2021/12/09 23:16:27;;;;;;;96.68;43.20;;;;;;;0.22;98.04;98848.16;10504114;28;20106;-73
2021/12/09 23:21:29;;;;;;;98.65;45.20;;;;;;;-0.02;96.78;98861.28;10503401;28;20110;-73
2021/12/09 23:26:30;;;;;;;90.03;41.95;;;;;;;-0.05;98.00;98849.25;10503999;28;20398;-72
2021/12/09 23:31:34;;;;;;;79.57;39.00;;;;;;;0.07;97.06;98844.84;10502546;28;20044;-71
2021/12/09 23:36:36;;;;;;;99.95;44.63;;;;;;;-0.15;97.88;98824.34;10503597;28;20497;-72